Little Rock, Arkansas
Current Conditions -  °F | °C
As of 1:53 PM on Friday 28 Nov 2014 (Local Time) from KLIT Reporting Station
Few Clouds Few Clouds  
Wind Chill: 58°   Ceiling: Unl
Heat Index: 58°   Visibility: 10mi
Dew Point: 31°   Wind: 9mph
Humidity: 36%   Direction: 180°S
Pressure: 30.16"   Gusts: NA
Location:  34.75°N, 92.27°W
Report Text: KLIT 281953Z 18008KT 10SM FEW250 14/M01 A3016 RMK AO2 SLP217 T01441006
Loading
Personal Weather Stations






























Interactive Weather Map New forecast layout! Learn more

10-Day Weather Forecast

Advertisements
Track Severe Weather on mobile